Time;durP1;ratioP1;P1;durP2;ratioP2;P2;SDS_P1;SDS_P2;PMS_P1;PMS_P2;Temp;Humidity;BMP_temperature;BMP_pressure;BME280_temperature;BME280_humidity;BME280_pressure;Samples;Min_cycle;Max_cycle;Signal;HPM_P1;HPM_P2
2021/09/15 00:01:21;;;;;;;1.40;1.10;;;;;;;21.63;100.00;-19934.53;6277320;22;20358;-72
2021/09/15 00:03:48;;;;;;;0.80;0.70;;;;;;;21.57;100.00;-20032.59;6277389;22;20386;-73
2021/09/15 00:06:15;;;;;;;1.13;1.03;;;;;;;21.54;100.00;-20161.72;6250933;22;20342;-73
2021/09/15 00:08:42;;;;;;;1.00;0.77;;;;;;;21.54;100.00;-20026.72;6277036;22;20431;-72
2021/09/15 00:11:12;;;;;;;1.57;1.47;;;;;;;21.54;100.00;-20307.16;6249355;22;20357;-73
2021/09/15 00:13:40;;;;;;;0.70;0.63;;;;;;;21.57;100.00;-20504.19;6249339;22;20407;-73
2021/09/15 00:16:12;;;;;;;0.73;0.70;;;;;;;21.52;100.00;-20671.00;6277423;22;20795;-73
2021/09/15 00:18:39;;;;;;;0.70;0.63;;;;;;;21.45;100.00;-20488.47;6276937;22;20436;-72
2021/09/15 00:21:06;;;;;;;0.80;0.70;;;;;;;21.51;100.00;-20472.06;6277268;22;20362;-72
2021/09/15 00:23:36;;;;;;;0.80;0.73;;;;;;;21.50;100.00;-20451.41;6277511;22;20786;-72
2021/09/15 00:26:03;;;;;;;0.73;0.70;;;;;;;21.61;100.00;-20627.47;6276718;22;20387;-73
2021/09/15 00:28:31;;;;;;;0.70;0.60;;;;;;;21.60;100.00;-20989.31;6248891;22;20435;-73
2021/09/15 00:30:59;;;;;;;0.80;0.70;;;;;;;21.60;100.00;-21238.94;6225178;22;20373;-72
2021/09/15 00:33:27;;;;;;;1.23;1.13;;;;;;;21.63;100.00;-21267.28;6249992;22;20716;-72
2021/09/15 00:35:54;;;;;;;0.80;0.70;;;;;;;21.52;100.00;-21264.28;6223605;22;20486;-72
2021/09/15 00:38:21;;;;;;;0.70;0.70;;;;;;;21.47;100.00;-21262.94;6224554;22;20429;-73
2021/09/15 00:40:52;;;;;;;0.80;0.70;;;;;;;21.48;100.00;-21263.06;6226117;22;20464;-72
2021/09/15 00:43:21;;;;;;;1.00;0.90;;;;;;;21.48;100.00;-21263.19;6224839;22;20406;-72
2021/09/15 00:45:49;;;;;;;0.80;0.70;;;;;;;21.50;100.00;-21263.75;6277315;22;20422;-72
2021/09/15 00:48:39;;;;;;;0.70;0.70;;;;;;;21.43;100.00;-21261.84;6253848;22;20561;-73
2021/09/15 00:51:10;;;;;;;0.90;0.80;;;;;;;21.29;100.00;-21077.94;6226223;22;20424;-72
2021/09/15 00:53:39;;;;;;;0.90;0.90;;;;;;;21.20;100.00;-20492.16;6249679;22;20401;-72
2021/09/15 00:56:06;;;;;;;0.70;0.60;;;;;;;21.13;100.00;-19738.78;6225210;22;20422;-73
2021/09/15 00:58:34;;;;;;;0.90;0.90;;;;;;;21.04;100.00;-18490.56;6250245;22;20486;-72
2021/09/15 01:01:01;;;;;;;1.37;1.27;;;;;;;20.99;100.00;-16904.19;6250116;22;20381;-73
2021/09/15 01:03:32;;;;;;;0.80;0.80;;;;;;;20.94;100.00;-15039.03;6225783;22;20416;-73
2021/09/15 01:06:02;;;;;;;0.93;0.83;;;;;;;20.91;100.00;-12259.53;6248605;22;20439;-72
2021/09/15 01:08:38;;;;;;;0.80;0.80;;;;;;;20.89;100.00;-9386.13;6225442;22;20913;-73
2021/09/15 01:11:17;;;;;;;0.97;0.90;;;;;;;20.86;100.00;-5983.50;6250022;22;20369;-72
2021/09/15 01:13:53;;;;;;;0.80;0.70;;;;;;;20.82;100.00;-731.28;6226068;22;20390;-72
2021/09/15 01:16:51;;;;;;;1.17;0.87;;;;;;;20.76;100.00;4618.16;6230681;22;20453;-73
2021/09/15 01:19:37;;;;;;;1.43;1.33;;;;;;;20.75;100.00;10369.75;6254486;22;20345;-73
2021/09/15 01:22:25;;;;;;;0.70;0.70;;;;;;;20.71;100.00;15514.94;6253600;22;20681;-73
2021/09/15 01:25:16;;;;;;;0.80;0.70;;;;;;;20.72;100.00;20416.88;6229011;22;20365;-72
2021/09/15 01:28:02;;;;;;;1.00;0.80;;;;;;;20.75;100.00;24369.56;6276758;22;20369;-72
2021/09/15 01:30:39;;;;;;;0.90;0.80;;;;;;;20.71;100.00;27194.72;6250009;22;20917;-72
2021/09/15 01:33:10;;;;;;;0.80;0.70;;;;;;;20.68;100.00;29621.56;6224847;22;20373;-72
2021/09/15 01:35:40;;;;;;;0.70;0.60;;;;;;;20.70;100.00;32417.88;6249614;22;20405;-73
2021/09/15 01:38:11;;;;;;;0.77;0.70;;;;;;;20.68;100.00;35235.13;6224726;22;20423;-73
2021/09/15 01:40:39;;;;;;;0.80;0.80;;;;;;;20.71;100.00;37384.09;6225837;22;20402;-72
2021/09/15 01:43:10;;;;;;;0.70;0.60;;;;;;;20.68;100.00;39908.84;6226514;22;20400;-72
2021/09/15 01:45:40;;;;;;;1.30;1.20;;;;;;;20.69;100.00;42749.69;6227807;22;20677;-73
2021/09/15 01:48:16;;;;;;;1.27;1.17;;;;;;;20.67;100.00;45813.88;6251392;22;20468;-73
2021/09/15 01:50:46;;;;;;;0.80;0.60;;;;;;;20.62;100.00;48212.72;6252066;22;20387;-72
2021/09/15 01:53:15;;;;;;;1.10;0.90;;;;;;;20.62;100.00;50541.97;6226530;22;20425;-72
2021/09/15 01:55:45;;;;;;;1.00;0.97;;;;;;;20.57;100.00;52202.06;6227011;22;20406;-72
2021/09/15 01:58:41;;;;;;;0.70;0.60;;;;;;;20.55;100.00;54865.19;6256927;22;20376;-72
2021/09/15 02:01:47;;;;;;;0.70;0.60;;;;;;;20.49;100.00;57193.19;6258363;22;20734;-73
2021/09/15 02:04:41;;;;;;;0.70;0.60;;;;;;;20.49;100.00;59527.63;6232054;22;20712;-73
2021/09/15 02:07:26;;;;;;;0.70;0.60;;;;;;;20.47;100.00;61194.25;6230254;22;20416;-74
2021/09/15 02:10:17;;;;;;;0.87;0.87;;;;;;;20.45;100.00;63195.63;6251135;22;20415;-72
2021/09/15 02:12:45;;;;;;;0.70;0.60;;;;;;;20.48;100.00;64201.19;6251987;22;20403;-73
2021/09/15 02:15:16;;;;;;;0.73;0.70;;;;;;;20.47;100.00;65537.41;6226680;22;20369;-72
2021/09/15 02:17:48;;;;;;;1.00;0.80;;;;;;;20.55;100.00;66214.69;6251290;22;20390;-72
2021/09/15 02:20:41;;;;;;;1.83;1.23;;;;;;;20.60;100.00;66554.88;6231553;22;20407;-72
2021/09/15 02:23:15;;;;;;;0.70;0.70;;;;;;;20.73;100.00;66235.53;6251148;22;20804;-72
2021/09/15 02:26:04;;;;;;;0.80;0.80;;;;;;;20.86;100.00;65245.97;6230018;22;20407;-72
2021/09/15 02:28:42;;;;;;;0.70;0.63;;;;;;;20.89;100.00;64581.13;6228352;22;20882;-72
2021/09/15 02:31:28;;;;;;;0.70;0.60;;;;;;;20.92;100.00;63247.19;6254952;22;20689;-72
2021/09/15 02:34:13;;;;;;;0.70;0.67;;;;;;;20.81;100.00;62900.25;6249635;22;20437;-72
2021/09/15 02:37:00;;;;;;;0.70;0.60;;;;;;;20.71;100.00;63558.06;6278692;22;20868;-72
2021/09/15 02:39:50;;;;;;;0.70;0.70;;;;;;;20.69;100.00;64224.25;6277677;22;20373;-72
2021/09/15 02:42:26;;;;;;;0.70;0.70;;;;;;;20.63;100.00;64886.56;6251596;22;20402;-72
2021/09/15 02:45:09;;;;;;;0.77;0.70;;;;;;;20.61;100.00;65552.91;6228487;22;20398;-71
2021/09/15 02:47:48;;;;;;;0.80;0.70;;;;;;;20.64;100.00;65890.69;6254106;22;20846;-71
2021/09/15 02:50:21;;;;;;;0.70;0.70;;;;;;;20.58;100.00;66218.16;6235132;22;20427;-72
2021/09/15 02:53:09;;;;;;;0.80;0.70;;;;;;;20.54;100.00;67216.75;6253760;22;20423;-71
2021/09/15 02:56:16;;;;;;;1.10;1.00;;;;;;;20.54;100.00;68219.69;6234642;22;20920;-71
2021/09/15 02:58:56;;;;;;;0.80;0.70;;;;;;;20.55;100.00;68890.66;6228863;22;20408;-71
2021/09/15 03:01:46;;;;;;;0.77;0.60;;;;;;;20.56;100.00;69225.91;6234776;22;20394;-71
2021/09/15 03:04:24;;;;;;;0.80;0.77;;;;;;;20.53;100.00;69891.66;6251453;22;20387;-71
2021/09/15 03:07:06;;;;;;;0.70;0.70;;;;;;;20.58;100.00;70567.28;6251226;22;20406;-71
2021/09/15 03:09:35;;;;;;;0.80;0.80;;;;;;;20.59;100.00;70234.34;6250815;22;20970;-71
2021/09/15 03:12:09;;;;;;;0.77;0.70;;;;;;;20.58;100.00;70567.88;6252029;22;20813;-71
2021/09/15 03:14:38;;;;;;;1.30;1.20;;;;;;;20.60;100.00;70570.34;6250544;22;20381;-71
2021/09/15 03:17:05;;;;;;;1.57;1.47;;;;;;;20.60;100.00;69230.75;6250950;22;20403;-71
2021/09/15 03:19:32;;;;;;;0.70;0.70;;;;;;;20.56;100.00;69225.91;6226162;22;20904;-72
2021/09/15 03:21:59;;;;;;;0.80;0.70;;;;;;;20.51;100.00;68885.84;6225972;22;20407;-72
2021/09/15 03:24:28;;;;;;;0.70;0.60;;;;;;;20.56;100.00;68557.25;6225836;22;20446;-71
2021/09/15 03:26:56;;;;;;;0.70;0.60;;;;;;;20.51;100.00;68551.28;6250480;22;20425;-71
2021/09/15 03:29:23;;;;;;;0.80;0.80;;;;;;;20.48;100.00;68213.13;6225424;22;20492;-71
2021/09/15 03:31:55;;;;;;;0.80;0.70;;;;;;;20.45;100.00;67875.03;6250729;22;20413;-72
2021/09/15 03:34:21;;;;;;;0.70;0.70;;;;;;;20.44;100.00;67873.88;6225027;22;20407;-71
2021/09/15 03:36:49;;;;;;;1.43;1.33;;;;;;;20.45;100.00;67540.59;6250605;22;20404;-71
2021/09/15 03:39:18;;;;;;;7.60;1.20;;;;;;;20.42;100.00;67202.63;6250509;22;20430;-71
2021/09/15 03:41:45;;;;;;;0.70;0.60;;;;;;;20.33;100.00;66857.75;6250401;22;20405;-71
2021/09/15 03:44:13;;;;;;;1.10;1.00;;;;;;;20.27;100.00;66517.63;6249529;22;20411;-71
2021/09/15 03:46:41;;;;;;;1.27;0.90;;;;;;;20.24;100.00;66513.56;6225159;22;20411;-71
2021/09/15 03:49:09;;;;;;;1.00;0.90;;;;;;;20.26;100.00;65848.06;6249037;22;20434;-71
2021/09/15 03:51:37;;;;;;;0.80;0.80;;;;;;;20.27;100.00;65180.91;6224207;22;20384;-70
2021/09/15 03:54:07;;;;;;;0.70;0.70;;;;;;;20.37;100.00;64522.91;6249267;22;20434;-71
2021/09/15 03:56:33;;;;;;;0.77;0.67;;;;;;;20.41;100.00;64193.88;6249779;22;20469;-71
2021/09/15 03:59:01;;;;;;;0.80;0.70;;;;;;;20.40;100.00;63858.69;6248378;22;20733;-71
2021/09/15 04:01:28;;;;;;;0.70;0.70;;;;;;;20.33;100.00;63182.31;6249584;22;20780;-71
2021/09/15 04:03:56;;;;;;;1.47;1.33;;;;;;;20.27;100.00;62842.31;6224248;22;20903;-71
2021/09/15 04:06:25;;;;;;;0.80;0.70;;;;;;;20.25;100.00;62173.00;6224889;22;20856;-72
2021/09/15 04:08:56;;;;;;;0.83;0.83;;;;;;;20.15;100.00;61494.63;6224404;22;20926;-71
2021/09/15 04:11:27;;;;;;;0.80;0.77;;;;;;;20.11;100.00;60489.44;6225772;22;20492;-70
2021/09/15 04:13:54;;;;;;;0.70;0.63;;;;;;;20.09;100.00;59486.78;6249337;22;20407;-70
2021/09/15 04:16:24;;;;;;;0.80;0.70;;;;;;;19.99;100.00;58142.94;6249064;22;20388;-70
2021/09/15 04:18:51;;;;;;;0.97;0.97;;;;;;;19.90;100.00;56468.00;6223593;22;20800;-70
2021/09/15 04:21:18;;;;;;;0.70;0.60;;;;;;;19.92;100.00;50812.47;6250073;22;20847;-72
2021/09/15 04:32:11;;;;;;;0.70;0.70;;;;;;;19.79;100.00;39496.09;6249946;22;20395;-71
2021/09/15 04:34:38;;;;;;;1.23;1.13;;;;;;;19.75;100.00;36753.56;6249456;22;20468;-70
2021/09/15 04:37:05;;;;;;;0.80;0.70;;;;;;;19.78;100.00;33966.00;6250067;22;20390;-70
2021/09/15 04:39:39;;;;;;;0.80;0.80;;;;;;;19.79;100.00;31078.59;6248393;22;20740;-70
2021/09/15 04:42:09;;;;;;;0.90;0.80;;;;;;;19.78;100.00;27444.50;6247035;22;20402;-70
2021/09/15 04:44:35;;;;;;;0.70;0.60;;;;;;;19.78;100.00;25095.66;6246207;22;20381;-71
2021/09/15 04:47:03;;;;;;;1.00;0.90;;;;;;;19.76;100.00;28596.53;6222475;22;20474;-71
2021/09/15 04:49:33;;;;;;;1.00;1.00;;;;;;;19.77;100.00;28044.97;6246977;22;20409;-71
2021/09/15 04:52:01;;;;;;;0.70;0.70;;;;;;;19.81;100.00;25503.88;6247201;22;20403;-71
2021/09/15 04:54:30;;;;;;;0.80;0.70;;;;;;;19.81;100.00;23246.69;6247538;22;20437;-71
2021/09/15 04:56:58;;;;;;;0.70;0.70;;;;;;;19.78;100.00;20943.44;6249761;22;20876;-71
2021/09/15 04:59:26;;;;;;;0.70;0.70;;;;;;;19.81;100.00;18898.34;6250235;22;20487;-71
2021/09/15 05:01:56;;;;;;;0.80;0.73;;;;;;;19.81;100.00;17223.94;6249065;22;20481;-70
2021/09/15 05:04:26;;;;;;;0.70;0.60;;;;;;;19.86;100.00;16112.38;6249612;22;20397;-71
2021/09/15 05:07:10;;;;;;;0.70;0.60;;;;;;;19.85;100.00;15068.69;6249869;22;20485;-71
2021/09/15 05:09:37;;;;;;;0.70;0.67;;;;;;;19.83;100.00;14713.41;6249166;22;20935;-70
2021/09/15 05:12:09;;;;;;;0.70;0.70;;;;;;;19.91;100.00;14186.41;6248676;22;20453;-70
2021/09/15 05:14:36;;;;;;;1.00;0.90;;;;;;;19.87;100.00;13709.91;6248897;22;20399;-70
2021/09/15 05:17:04;;;;;;;1.87;1.77;;;;;;;19.95;100.00;13314.06;6249556;22;20994;-72
2021/09/15 05:19:36;;;;;;;1.33;1.23;;;;;;;19.93;100.00;13025.78;6249019;22;20399;-71
2021/09/15 05:22:05;;;;;;;1.97;1.87;;;;;;;19.97;100.00;12841.97;6249500;22;20406;-71
2021/09/15 05:24:32;;;;;;;0.70;0.60;;;;;;;19.94;100.00;12710.13;6249421;22;20437;-70
2021/09/15 05:27:01;;;;;;;0.73;0.70;;;;;;;20.00;100.00;12313.69;6249835;22;20411;-70
2021/09/15 05:29:29;;;;;;;0.70;0.70;;;;;;;19.95;100.00;12019.56;6248693;22;20403;-70
2021/09/15 05:31:57;;;;;;;1.57;1.47;;;;;;;20.01;100.00;11985.22;6249615;22;20403;-70
2021/09/15 05:34:24;;;;;;;1.10;1.00;;;;;;;20.07;100.00;12140.91;6223664;22;20788;-70
2021/09/15 05:36:51;;;;;;;0.80;0.77;;;;;;;20.10;100.00;12465.38;6249477;22;20487;-70
2021/09/15 05:39:21;;;;;;;0.70;0.70;;;;;;;20.14;100.00;12815.91;6249262;22;20430;-70
2021/09/15 05:41:48;;;;;;;1.47;1.37;;;;;;;20.12;100.00;12825.63;6249440;22;20435;-70
2021/09/15 05:44:15;;;;;;;1.93;1.53;;;;;;;20.13;100.00;12774.38;6249231;22;20810;-71
2021/09/15 05:46:45;;;;;;;1.57;1.27;;;;;;;20.16;100.00;12731.53;6224818;22;20435;-70
2021/09/15 05:49:14;;;;;;;0.70;0.60;;;;;;;20.16;100.00;12929.50;6223962;22;20395;-70
2021/09/15 05:51:43;;;;;;;0.70;0.70;;;;;;;20.16;100.00;12957.78;6249395;22;20438;-71
2021/09/15 05:54:12;;;;;;;0.70;0.70;;;;;;;20.22;100.00;13149.63;6248872;22;20464;-70
2021/09/15 05:56:39;;;;;;;0.80;0.80;;;;;;;20.25;100.00;13497.31;6249175;22;20410;-70
2021/09/15 05:59:08;;;;;;;0.70;0.60;;;;;;;20.26;100.00;13595.28;6248458;22;20406;-70
2021/09/15 06:01:36;;;;;;;0.73;0.73;;;;;;;20.21;100.00;13465.47;6249334;22;20406;-71
2021/09/15 06:04:07;;;;;;;0.70;0.60;;;;;;;20.25;100.00;13361.25;6224182;22;20411;-70
2021/09/15 06:07:01;;;;;;;0.70;0.70;;;;;;;20.31;100.00;13434.66;6248695;22;20406;-70
2021/09/15 06:09:28;;;;;;;1.47;0.80;;;;;;;20.34;100.00;13823.88;6248513;22;20431;-70
2021/09/15 06:11:55;;;;;;;0.77;0.70;;;;;;;20.38;100.00;14352.03;6249509;22;20410;-71
2021/09/15 06:14:25;;;;;;;0.90;0.83;;;;;;;20.43;100.00;14705.88;6248917;22;20410;-70
2021/09/15 06:16:54;;;;;;;0.80;0.80;;;;;;;20.48;100.00;15211.78;6249246;22;20493;-70
2021/09/15 06:19:22;;;;;;;5.33;1.47;;;;;;;20.57;100.00;16035.38;6222985;22;20736;-70
2021/09/15 06:22:08;;;;;;;0.80;0.80;;;;;;;20.66;100.00;16715.22;6252291;22;20506;-70
2021/09/15 06:24:54;;;;;;;0.80;0.80;;;;;;;20.77;100.00;17815.94;6275937;22;20445;-70
2021/09/15 06:27:26;;;;;;;0.70;0.60;;;;;;;20.75;100.00;18799.47;6251054;22;20436;-71
2021/09/15 06:29:53;;;;;;;1.20;1.00;;;;;;;20.86;100.00;20007.06;6250265;22;20829;-71
2021/09/15 06:32:21;;;;;;;1.03;1.03;;;;;;;20.86;100.00;20728.97;6251046;22;20417;-70
2021/09/15 06:34:50;;;;;;;0.70;0.60;;;;;;;20.89;100.00;21552.84;6250659;22;20407;-71
2021/09/15 06:37:18;;;;;;;0.70;0.60;;;;;;;20.97;100.00;22562.38;6278138;22;20856;-70
2021/09/15 06:39:44;;;;;;;0.70;0.70;;;;;;;20.99;100.00;23368.44;6225766;22;20389;-70
2021/09/15 06:42:12;;;;;;;0.87;0.80;;;;;;;20.97;100.00;24108.34;6277722;22;20346;-70
2021/09/15 06:44:39;;;;;;;0.70;0.70;;;;;;;20.98;100.00;24930.09;6278060;22;20387;-70
2021/09/15 06:47:06;;;;;;;1.60;1.50;;;;;;;21.06;100.00;25579.38;6250376;22;20437;-70
2021/09/15 06:49:33;;;;;;;1.17;1.07;;;;;;;21.02;100.00;26192.19;6277087;22;20368;-70
2021/09/15 06:52:05;;;;;;;0.70;0.70;;;;;;;21.18;100.00;27272.44;6252143;22;20375;-70
2021/09/15 06:54:33;;;;;;;0.83;0.83;;;;;;;21.32;100.00;28389.00;6251166;22;20413;-70
2021/09/15 06:57:03;;;;;;;0.70;0.60;;;;;;;21.27;100.00;29068.84;6225658;22;20409;-71
2021/09/15 06:59:31;;;;;;;0.83;0.83;;;;;;;21.44;100.00;30548.31;6277741;22;20816;-71
2021/09/15 07:01:58;;;;;;;3.60;3.37;;;;;;;21.56;100.00;31976.50;6225725;22;20391;-70
2021/09/15 07:04:31;;;;;;;1.60;1.50;;;;;;;21.58;100.00;33200.44;6225422;22;20482;-70
2021/09/15 07:06:59;;;;;;;1.10;1.00;;;;;;;21.60;100.00;34492.31;6250711;22;20403;-70
2021/09/15 07:09:30;;;;;;;0.97;0.90;;;;;;;21.64;100.00;35723.84;6250433;22;20887;-71
2021/09/15 07:11:57;;;;;;;0.80;0.70;;;;;;;21.68;100.00;36831.44;6277704;22;20428;-71
2021/09/15 07:14:24;;;;;;;0.70;0.67;;;;;;;21.66;100.00;37706.72;6277255;22;20445;-71
2021/09/15 07:16:51;;;;;;;1.13;1.03;;;;;;;21.76;100.00;38990.38;6250408;22;20410;-70
2021/09/15 07:19:18;;;;;;;0.70;0.60;;;;;;;21.82;100.00;39940.25;6250470;22;20389;-71
2021/09/15 07:21:48;;;;;;;0.90;0.70;;;;;;;21.83;100.00;40283.47;6250176;22;20398;-70
2021/09/15 07:24:18;;;;;;;0.70;0.60;;;;;;;21.92;100.00;40664.16;6277339;22;20369;-70
2021/09/15 07:26:46;;;;;;;0.70;0.60;;;;;;;21.97;100.00;40334.91;6277622;22;20358;-70
2021/09/15 07:29:35;;;;;;;0.70;0.60;;;;;;;22.17;100.00;40017.22;6228823;22;20876;-71
2021/09/15 07:32:22;;;;;;;0.90;0.70;;;;;;;22.19;100.00;38004.78;6277213;22;20403;-71
2021/09/15 07:34:49;;;;;;;0.70;0.60;;;;;;;22.25;100.00;34441.50;6250375;22;20391;-70
2021/09/15 07:37:17;;;;;;;0.70;0.60;;;;;;;22.31;100.00;29609.06;6277287;22;20394;-71
2021/09/15 07:39:44;;;;;;;0.70;0.60;;;;;;;22.27;100.00;23192.28;6250384;22;20428;-71
2021/09/15 07:42:13;;;;;;;0.80;0.73;;;;;;;22.40;100.00;15555.75;6225459;22;20804;-71
2021/09/15 07:44:40;;;;;;;1.00;0.90;;;;;;;22.75;100.00;3493.97;6249743;22;20438;-71
2021/09/15 07:47:07;;;;;;;0.70;0.70;;;;;;;22.83;100.00;-11092.53;6277522;22;20365;-71
2021/09/15 07:49:34;;;;;;;0.70;0.60;;;;;;;22.94;100.00;-21078.03;6249888;22;20774;-71
2021/09/15 07:52:02;;;;;;;0.70;0.70;;;;;;;22.72;100.00;-21296.31;6250214;22;20405;-71
2021/09/15 07:54:32;;;;;;;0.80;0.73;;;;;;;22.86;100.00;-21300.13;6250854;22;20433;-71
2021/09/15 07:57:00;;;;;;;1.00;1.00;;;;;;;22.90;100.00;-21301.06;6250134;22;20410;-71
2021/09/15 07:59:28;;;;;;;1.00;0.90;;;;;;;22.61;100.00;-21293.31;6276445;22;20426;-71
2021/09/15 08:01:55;;;;;;;0.70;0.60;;;;;;;22.68;100.00;-21295.22;6277364;22;20342;-71
2021/09/15 08:04:44;;;;;;;0.70;0.70;;;;;;;22.89;100.00;-21300.94;6255646;22;20346;-71
2021/09/15 08:07:10;;;;;;;0.80;0.70;;;;;;;22.88;100.00;-21300.53;6277033;22;20383;-71
2021/09/15 08:09:37;;;;;;;0.80;0.80;;;;;;;22.83;100.00;-21299.16;6250085;22;20555;-71
2021/09/15 08:12:05;;;;;;;0.70;0.60;;;;;;;22.69;100.00;-21295.34;6250308;22;20430;-71
2021/09/15 08:14:33;;;;;;;0.70;0.70;;;;;;;22.62;100.00;-21293.72;6249655;22;20418;-71
2021/09/15 08:17:00;;;;;;;0.90;0.80;;;;;;;22.85;100.00;-21299.72;6275731;22;20361;-71
2021/09/15 08:19:27;;;;;;;0.80;0.80;;;;;;;22.60;100.00;-21293.19;6276111;22;20362;-71
2021/09/15 08:21:55;;;;;;;0.80;0.70;;;;;;;22.73;100.00;-21296.44;6277124;22;20878;-71
2021/09/15 08:24:22;;;;;;;0.70;0.60;;;;;;;22.52;100.00;-21290.88;6276528;22;20493;-71
2021/09/15 08:26:49;;;;;;;0.70;0.60;;;;;;;22.46;100.00;-21289.22;6277254;22;20389;-71
2021/09/15 08:29:16;;;;;;;2.60;0.90;;;;;;;22.49;100.00;-21290.03;6276793;22;20815;-71
2021/09/15 08:31:44;;;;;;;2.63;2.50;;;;;;;22.51;100.00;-21290.59;6249641;22;20384;-71
2021/09/15 08:34:12;;;;;;;0.70;0.70;;;;;;;22.55;100.00;-21291.81;6249286;22;20407;-71
2021/09/15 08:36:38;;;;;;;0.80;0.80;;;;;;;22.43;100.00;-21288.56;6250072;22;20397;-71
2021/09/15 08:39:05;;;;;;;3.90;1.00;;;;;;;22.41;100.00;-21288.00;6250108;22;20381;-71
2021/09/15 08:41:32;;;;;;;0.70;0.60;;;;;;;22.35;100.00;-21286.38;6276542;22;20358;-71
2021/09/15 08:44:00;;;;;;;0.73;0.60;;;;;;;22.27;100.00;-21284.31;6277065;22;20727;-71
2021/09/15 08:46:28;;;;;;;0.70;0.60;;;;;;;22.31;100.00;-21285.28;6250186;22;20394;-71
2021/09/15 08:48:59;;;;;;;1.00;0.93;;;;;;;22.46;100.00;-21289.38;6276646;22;20394;-71
2021/09/15 08:51:27;;;;;;;0.80;0.70;;;;;;;22.60;100.00;-21293.03;6249666;22;20898;-71
2021/09/15 08:53:55;;;;;;;0.90;0.80;;;;;;;22.77;100.00;-21297.53;6249067;22;20476;-72
2021/09/15 09:34:03;;;;;;;0.70;0.60;;;;;;;22.92;100.00;-21301.63;6248795;22;20767;-72
2021/09/15 09:36:30;;;;;;;0.70;0.60;;;;;;;22.79;100.00;-21298.22;6249356;22;20403;-72
2021/09/15 09:39:09;;;;;;;0.70;0.60;;;;;;;22.86;100.00;-21299.97;6224522;22;20919;-71
2021/09/15 09:41:37;;;;;;;1.47;1.30;;;;;;;22.85;100.00;-21299.84;6249531;22;20368;-72
2021/09/15 09:44:05;;;;;;;1.73;0.70;;;;;;;22.80;100.00;-21298.34;6276284;22;20395;-71
2021/09/15 09:46:41;;;;;;;0.70;0.60;;;;;;;22.66;100.00;-21294.81;6249066;22;20406;-70
2021/09/15 09:49:22;;;;;;;0.77;0.73;;;;;;;22.52;100.00;-21291.00;6225706;22;20385;-70
2021/09/15 09:51:49;;;;;;;0.70;0.60;;;;;;;22.26;100.00;-21283.91;6223618;22;20431;-70
2021/09/15 09:54:20;;;;;;;0.70;0.60;;;;;;;21.95;100.00;-21275.75;6276471;22;20438;-70
2021/09/15 09:56:49;;;;;;;3.23;1.20;;;;;;;21.75;100.00;-21270.44;6248219;22;20834;-71
2021/09/15 10:04:00;;;;;;;0.70;0.60;;;;;;;21.28;100.00;-15802.56;6278711;22;20458;-71
2021/09/15 10:06:29;;;;;;;0.80;0.73;;;;;;;21.34;100.00;-2683.75;6251294;22;20386;-71
2021/09/15 10:09:00;;;;;;;0.70;0.60;;;;;;;21.23;100.00;11759.88;6277722;22;20385;-70
2021/09/15 10:11:28;;;;;;;0.70;0.63;;;;;;;21.21;100.00;26591.63;6278488;22;20418;-70
2021/09/15 10:13:55;;;;;;;0.70;0.70;;;;;;;21.22;100.00;37560.50;6275159;22;20365;-70
2021/09/15 10:16:23;;;;;;;0.70;0.60;;;;;;;21.24;100.00;46223.38;6278164;22;20757;-70
2021/09/15 10:31:51;;;;;;;1.10;1.00;;;;;;;22.47;100.00;53042.19;6278068;22;20438;-70
2021/09/15 10:45:33;;;;;;;0.70;0.60;;;;;;;22.74;100.00;22524.84;6249191;22;20373;-70
2021/09/15 10:48:14;;;;;;;0.70;0.60;;;;;;;22.76;100.00;13463.13;6250847;22;20403;-70
2021/09/15 10:50:52;;;;;;;1.07;0.97;;;;;;;22.44;100.00;3595.53;6252507;22;20369;-70
2021/09/15 10:53:31;;;;;;;0.70;0.60;;;;;;;22.48;100.00;-1515.09;6278862;22;20410;-71
2021/09/15 10:56:02;;;;;;;0.70;0.60;;;;;;;22.31;100.00;-3168.63;6277936;22;20386;-70
2021/09/15 10:58:31;;;;;;;0.70;0.70;;;;;;;22.14;100.00;-1429.41;6277813;22;20833;-70
2021/09/15 11:00:59;;;;;;;0.70;0.60;;;;;;;22.11;100.00;-71.69;6277407;22;20387;-69
2021/09/15 11:03:30;;;;;;;0.70;0.67;;;;;;;21.94;100.00;4337.03;6250856;22;20342;-69
2021/09/15 11:06:18;;;;;;;1.87;1.77;;;;;;;22.00;100.00;10885.69;6278367;22;20339;-69
2021/09/15 11:08:47;;;;;;;0.70;0.60;;;;;;;22.02;100.00;18423.16;6250408;22;20447;-69
2021/09/15 11:11:47;;;;;;;0.70;0.60;;;;;;;21.86;100.00;25684.75;6277013;22;20451;-70
2021/09/15 11:14:17;;;;;;;1.30;0.97;;;;;;;21.71;100.00;31373.75;6249883;22;20865;-70
2021/09/15 11:16:45;;;;;;;0.70;0.70;;;;;;;21.59;100.00;36929.16;6225000;22;20382;-70
2021/09/15 11:19:16;;;;;;;0.70;0.70;;;;;;;21.49;100.00;44116.53;6277685;22;20386;-69
2021/09/15 11:21:47;;;;;;;1.00;0.90;;;;;;;21.31;100.00;48936.47;6250005;22;20395;-70
2021/09/15 11:24:20;;;;;;;1.23;1.13;;;;;;;21.20;100.00;54260.16;6277796;22;20406;-72
2021/09/15 11:26:52;;;;;;;0.70;0.70;;;;;;;21.03;100.00;57913.72;6277799;22;20788;-72
2021/09/15 11:29:37;;;;;;;0.70;0.60;;;;;;;21.07;100.00;61257.72;6277593;22;20411;-72
2021/09/15 11:32:05;;;;;;;0.70;0.60;;;;;;;20.96;100.00;62248.31;6250412;22;20456;-72
2021/09/15 11:34:38;;;;;;;0.70;0.60;;;;;;;21.08;100.00;62261.44;6250319;22;20421;-72
2021/09/15 11:37:17;;;;;;;0.70;0.70;;;;;;;21.27;100.00;62615.47;6277482;22;20376;-72
2021/09/15 11:39:52;;;;;;;0.70;0.70;;;;;;;21.51;100.00;62641.84;6277201;22;20349;-73
2021/09/15 11:42:22;;;;;;;0.70;0.60;;;;;;;21.87;100.00;62680.25;6250559;22;20883;-72
2021/09/15 11:44:49;;;;;;;0.70;0.70;;;;;;;21.94;100.00;61684.38;6249180;22;20747;-72
2021/09/15 11:47:23;;;;;;;0.73;0.67;;;;;;;21.92;100.00;61347.03;6250179;22;20494;-72
2021/09/15 11:49:51;;;;;;;0.70;0.60;;;;;;;21.74;100.00;60324.28;6225143;22;20464;-74
2021/09/15 11:52:19;;;;;;;0.70;0.63;;;;;;;21.41;100.00;59287.78;6250160;22;20438;-73
2021/09/15 11:54:50;;;;;;;0.70;0.60;;;;;;;21.36;100.00;58280.41;6277026;22;20440;-72
2021/09/15 11:57:18;;;;;;;0.70;0.60;;;;;;;21.30;100.00;56604.72;6277332;22;20706;-72
2021/09/15 11:59:45;;;;;;;0.90;0.80;;;;;;;21.32;100.00;54938.47;6276765;22;20366;-73
2021/09/15 12:02:15;;;;;;;0.70;0.63;;;;;;;21.23;100.00;52262.28;6251148;22;20383;-72
2021/09/15 12:04:45;;;;;;;0.70;0.70;;;;;;;21.31;100.00;50269.00;6250482;22;20387;-72
2021/09/15 12:07:16;;;;;;;0.90;0.77;;;;;;;21.33;100.00;48272.13;6248596;22;20388;-73
2021/09/15 12:09:44;;;;;;;0.70;0.60;;;;;;;21.55;100.00;47291.41;6248951;22;20762;-72
2021/09/15 12:12:11;;;;;;;0.70;0.70;;;;;;;21.61;100.00;45631.94;6249441;22;20766;-73
2021/09/15 12:14:38;;;;;;;2.60;1.00;;;;;;;21.83;100.00;44650.63;6276448;22;20369;-72
2021/09/15 12:17:07;;;;;;;0.70;0.60;;;;;;;22.15;100.00;44009.75;6250259;22;20456;-72
2021/09/15 12:19:36;;;;;;;0.80;0.80;;;;;;;22.64;100.00;44714.38;6250067;22;20365;-72
2021/09/15 12:22:04;;;;;;;0.80;0.70;;;;;;;22.60;100.00;44377.44;6250041;22;20738;-71
2021/09/15 12:24:32;;;;;;;0.70;0.60;;;;;;;22.86;100.00;45064.69;6276750;22;20494;-72
2021/09/15 12:27:16;;;;;;;0.70;0.60;;;;;;;22.85;100.00;44730.78;6277326;22;20939;-73
2021/09/15 12:29:43;;;;;;;0.80;0.77;;;;;;;22.89;100.00;45734.22;6223951;22;20391;-72
2021/09/15 12:32:10;;;;;;;0.70;0.60;;;;;;;23.14;100.00;47757.66;6276542;22;20933;-73
2021/09/15 12:34:42;;;;;;;0.70;0.60;;;;;;;23.50;100.00;49123.75;6276819;22;20401;-73
2021/09/15 12:37:12;;;;;;;0.80;0.80;;;;;;;23.24;100.00;49435.59;6277627;22;20395;-72
2021/09/15 12:39:48;;;;;;;0.70;0.60;;;;;;;23.27;100.00;50440.84;6277006;22;20390;-72
2021/09/15 12:42:16;;;;;;;2.20;1.70;;;;;;;23.03;100.00;51088.13;6277296;22;20398;-72
2021/09/15 12:44:46;;;;;;;0.70;0.70;;;;;;;23.00;100.00;51754.28;6276228;22;20848;-72
2021/09/15 12:47:13;;;;;;;0.70;0.60;;;;;;;23.04;100.00;52426.06;6276635;22;20394;-73
2021/09/15 12:49:42;;;;;;;0.70;0.60;;;;;;;23.23;100.00;53446.69;6249895;22;20407;-72
2021/09/15 12:52:14;;;;;;;0.70;0.60;;;;;;;23.23;100.00;53781.72;6249158;22;20517;-72
2021/09/15 12:54:52;;;;;;;0.70;0.60;;;;;;;23.21;100.00;53779.34;6224283;22;20852;-72
2021/09/15 12:57:25;;;;;;;0.70;0.60;;;;;;;23.28;100.00;54121.09;6276761;22;20805;-72
2021/09/15 12:59:54;;;;;;;0.70;0.70;;;;;;;23.07;100.00;54101.47;6276309;22;20372;-72